AFL1553 UNNT-UUEE
Flight info
| Callsign | AFL1553 |
|---|---|
| Flight time | 3h 32m |
| Altitude | 34000 |
| Route | N0490F340 OGAMA A308 ML A305 ABITI M864 KERUN P164 IDMOR M864 IBROT T535 URIDU L158 DIMGI |
| Aircraft | B77W/H-VGDW/C |
Departure
| Time | 2026-05-05 14:56 |
|---|---|
| Airport | Novosibirsk Tolmachevo Airport (UNNT) |
Arrival
| Time | 2026-05-05 18:29 |
|---|---|
| Airport | Sheremetyevo International Airport (UUEE) |
| Time | Latitude | Longitude | Altitude | Speed | Heading |
|---|---|---|---|---|---|
| 2026-05-05 14:10 | 55.01033 | 82.66755 | 378 ft | 0 kts | 168° |
| 2026-05-05 14:46 | 55.01038 | 82.66753 | 378 ft | 2 kts | 168° |
| 2026-05-05 14:46 | 55.01057 | 82.66745 | 378 ft | 3 kts | 161° |
| 2026-05-05 14:46 | 55.01074 | 82.66733 | 378 ft | 3 kts | 147° |
| 2026-05-05 14:47 | 55.01087 | 82.66716 | 378 ft | 3 kts | 123° |
| 2026-05-05 14:47 | 55.01093 | 82.66699 | 378 ft | 3 kts | 89° |
| 2026-05-05 14:47 | 55.01093 | 82.66689 | 378 ft | 0 kts | 77° |
| 2026-05-05 14:52 | 55.01095 | 82.66709 | 378 ft | 7 kts | 79° |
| 2026-05-05 14:52 | 55.01096 | 82.66804 | 378 ft | 8 kts | 95° |
| 2026-05-05 14:53 | 55.01084 | 82.66899 | 378 ft | 9 kts | 101° |
| 2026-05-05 14:53 | 55.01085 | 82.67014 | 378 ft | 10 kts | 84° |
| 2026-05-05 14:53 | 55.01094 | 82.67130 | 378 ft | 10 kts | 82° |
| 2026-05-05 14:53 | 55.01104 | 82.67246 | 378 ft | 10 kts | 83° |
| 2026-05-05 14:54 | 55.01107 | 82.67363 | 378 ft | 10 kts | 89° |
| 2026-05-05 14:54 | 55.01135 | 82.67466 | 378 ft | 10 kts | 41° |
| 2026-05-05 14:54 | 55.01191 | 82.67534 | 378 ft | 10 kts | 32° |
| 2026-05-05 14:54 | 55.01252 | 82.67600 | 378 ft | 11 kts | 30° |
| 2026-05-05 14:55 | 55.01358 | 82.67709 | 377 ft | 26 kts | 31° |
| 2026-05-05 14:55 | 55.01483 | 82.67683 | 376 ft | 20 kts | 275° |
| 2026-05-05 14:55 | 55.01461 | 82.67440 | 377 ft | 23 kts | 261° |
| 2026-05-05 14:55 | 55.01415 | 82.66920 | 379 ft | 74 kts | 261° |
| 2026-05-05 14:56 | 55.01295 | 82.65622 | 377 ft | 141 kts | 261° |
| 2026-05-05 14:56 | 55.01111 | 82.63621 | 381 ft | 191 kts | 260° |
| 2026-05-05 14:56 | 55.00883 | 82.61211 | 724 ft | 201 kts | 260° |
| 2026-05-05 14:56 | 55.00649 | 82.58855 | 1512 ft | 198 kts | 261° |
| 2026-05-05 14:57 | 55.00442 | 82.56474 | 2127 ft | 202 kts | 261° |
| 2026-05-05 14:57 | 55.00254 | 82.53918 | 2343 ft | 223 kts | 270° |
| 2026-05-05 14:57 | 55.00684 | 82.51229 | 2591 ft | 240 kts | 299° |
| 2026-05-05 14:57 | 55.01558 | 82.48678 | 3134 ft | 248 kts | 301° |
| 2026-05-05 14:58 | 55.02463 | 82.46064 | 3782 ft | 256 kts | 301° |
| 2026-05-05 14:58 | 55.03396 | 82.43369 | 4402 ft | 264 kts | 301° |
| 2026-05-05 14:58 | 55.04352 | 82.40606 | 5136 ft | 267 kts | 301° |
| 2026-05-05 14:58 | 55.05314 | 82.37820 | 5900 ft | 270 kts | 301° |
| 2026-05-05 14:59 | 55.06285 | 82.34999 | 6636 ft | 272 kts | 301° |
| 2026-05-05 14:59 | 55.07264 | 82.32148 | 7364 ft | 275 kts | 301° |
| 2026-05-05 14:59 | 55.08251 | 82.29268 | 8088 ft | 277 kts | 301° |
| 2026-05-05 14:59 | 55.09230 | 82.26404 | 8789 ft | 280 kts | 301° |
| 2026-05-05 15:00 | 55.10231 | 82.23471 | 9484 ft | 282 kts | 301° |
| 2026-05-05 15:00 | 55.10910 | 82.21480 | 9934 ft | 283 kts | 301° |
| 2026-05-05 15:00 | 55.12269 | 82.17486 | 10542 ft | 301 kts | 301° |
| 2026-05-05 15:00 | 55.13381 | 82.14213 | 10736 ft | 324 kts | 301° |
| 2026-05-05 15:01 | 55.14573 | 82.10699 | 10922 ft | 348 kts | 301° |
| 2026-05-05 15:01 | 55.15834 | 82.06976 | 11397 ft | 362 kts | 301° |
| 2026-05-05 15:01 | 55.17127 | 82.03153 | 12121 ft | 369 kts | 300° |
| 2026-05-05 15:01 | 55.18438 | 81.99271 | 13005 ft | 372 kts | 300° |
| 2026-05-05 15:02 | 55.19760 | 81.95347 | 13908 ft | 375 kts | 300° |
| 2026-05-05 15:02 | 55.21088 | 81.91401 | 14758 ft | 378 kts | 300° |
| 2026-05-05 15:02 | 55.22427 | 81.87415 | 15580 ft | 382 kts | 300° |
| 2026-05-05 15:02 | 55.23782 | 81.83377 | 16388 ft | 386 kts | 300° |
| 2026-05-05 15:03 | 55.25144 | 81.79308 | 17170 ft | 389 kts | 300° |
| 2026-05-05 15:03 | 55.26518 | 81.75197 | 17931 ft | 393 kts | 300° |
| 2026-05-05 15:03 | 55.27906 | 81.71038 | 18635 ft | 397 kts | 300° |
| 2026-05-05 15:03 | 55.29308 | 81.66831 | 19304 ft | 402 kts | 300° |
| 2026-05-05 15:04 | 55.30726 | 81.62565 | 19981 ft | 406 kts | 300° |
| 2026-05-05 15:04 | 55.32155 | 81.58260 | 20625 ft | 411 kts | 300° |
| 2026-05-05 15:04 | 55.33600 | 81.53898 | 21266 ft | 415 kts | 300° |
| 2026-05-05 15:04 | 55.35058 | 81.49491 | 21879 ft | 419 kts | 300° |
| 2026-05-05 15:05 | 55.38009 | 81.40543 | 23060 ft | 427 kts | 300° |
| 2026-05-05 15:05 | 55.39502 | 81.36005 | 23609 ft | 431 kts | 300° |
| 2026-05-05 15:05 | 55.41010 | 81.31412 | 24160 ft | 435 kts | 300° |
| 2026-05-05 15:06 | 55.42526 | 81.26788 | 24690 ft | 439 kts | 300° |
| 2026-05-05 15:06 | 55.44057 | 81.22108 | 25190 ft | 443 kts | 300° |
| 2026-05-05 15:06 | 55.45578 | 81.17366 | 25664 ft | 447 kts | 297° |
| 2026-05-05 15:06 | 55.46862 | 81.12365 | 26121 ft | 451 kts | 291° |
| 2026-05-05 15:07 | 55.47854 | 81.07100 | 26578 ft | 454 kts | 284° |
| 2026-05-05 15:07 | 55.48601 | 81.01753 | 27010 ft | 458 kts | 283° |
| 2026-05-05 15:07 | 55.49333 | 80.96266 | 27440 ft | 461 kts | 283° |
| 2026-05-05 15:07 | 55.50064 | 80.90731 | 27852 ft | 465 kts | 283° |
| 2026-05-05 15:08 | 55.50803 | 80.85169 | 28245 ft | 468 kts | 283° |
| 2026-05-05 15:08 | 55.51556 | 80.79557 | 28619 ft | 471 kts | 283° |
| 2026-05-05 15:08 | 55.52317 | 80.73915 | 28977 ft | 474 kts | 283° |
| 2026-05-05 15:08 | 55.53085 | 80.68242 | 29313 ft | 477 kts | 283° |
| 2026-05-05 15:09 | 55.53858 | 80.62523 | 29641 ft | 480 kts | 283° |
| 2026-05-05 15:09 | 55.54632 | 80.56782 | 29946 ft | 482 kts | 283° |
| 2026-05-05 15:09 | 55.55407 | 80.51011 | 30338 ft | 482 kts | 283° |
| 2026-05-05 15:09 | 55.56177 | 80.45250 | 30765 ft | 481 kts | 283° |
| 2026-05-05 15:10 | 55.56942 | 80.39500 | 31169 ft | 481 kts | 283° |
| 2026-05-05 15:10 | 55.57705 | 80.33738 | 31532 ft | 481 kts | 283° |
| 2026-05-05 15:10 | 55.58467 | 80.27968 | 31879 ft | 482 kts | 283° |
| 2026-05-05 15:10 | 55.59225 | 80.22198 | 32230 ft | 482 kts | 283° |
| 2026-05-05 15:11 | 55.59981 | 80.16422 | 32578 ft | 482 kts | 283° |
| 2026-05-05 15:11 | 55.60733 | 80.10661 | 32916 ft | 482 kts | 283° |
| 2026-05-05 15:11 | 55.61485 | 80.04871 | 33227 ft | 482 kts | 283° |
| 2026-05-05 15:11 | 55.62232 | 79.99098 | 33550 ft | 482 kts | 283° |
| 2026-05-05 15:12 | 55.62978 | 79.93315 | 33852 ft | 482 kts | 283° |
| 2026-05-05 15:12 | 55.64470 | 79.81729 | 33986 ft | 488 kts | 283° |
| 2026-05-05 15:13 | 55.65971 | 79.70076 | 33985 ft | 482 kts | 283° |
| 2026-05-05 15:13 | 55.67449 | 79.58527 | 33995 ft | 480 kts | 283° |
| 2026-05-05 15:14 | 55.68912 | 79.46981 | 33996 ft | 480 kts | 282° |
| 2026-05-05 15:14 | 55.70120 | 79.37378 | 33995 ft | 480 kts | 282° |
| 2026-05-05 15:15 | 55.71564 | 79.25803 | 33995 ft | 481 kts | 282° |
| 2026-05-05 15:15 | 55.73001 | 79.14193 | 33995 ft | 482 kts | 282° |
| 2026-05-05 15:16 | 55.74428 | 79.02561 | 33996 ft | 483 kts | 282° |
| 2026-05-05 15:16 | 55.75846 | 78.90907 | 33995 ft | 483 kts | 282° |
| 2026-05-05 15:17 | 55.77254 | 78.79241 | 33996 ft | 483 kts | 282° |
| 2026-05-05 15:17 | 55.78651 | 78.67561 | 33994 ft | 483 kts | 282° |
| 2026-05-05 15:18 | 55.80033 | 78.55899 | 33994 ft | 482 kts | 282° |
| 2026-05-05 15:18 | 55.81395 | 78.44320 | 33994 ft | 481 kts | 282° |
| 2026-05-05 15:19 | 55.82753 | 78.32667 | 33994 ft | 481 kts | 282° |
| 2026-05-05 15:19 | 55.84099 | 78.21013 | 33995 ft | 481 kts | 281° |
| 2026-05-05 15:20 | 55.85434 | 78.09351 | 33995 ft | 481 kts | 281° |
| 2026-05-05 15:20 | 55.86759 | 77.97689 | 33995 ft | 481 kts | 281° |
| 2026-05-05 15:21 | 55.88053 | 77.86017 | 33995 ft | 481 kts | 281° |
| 2026-05-05 15:21 | 55.89269 | 77.74291 | 33992 ft | 481 kts | 280° |
| 2026-05-05 15:22 | 55.90465 | 77.62547 | 33933 ft | 482 kts | 280° |
| 2026-05-05 15:22 | 55.91660 | 77.50783 | 33889 ft | 483 kts | 280° |
| 2026-05-05 15:23 | 55.92850 | 77.39010 | 33862 ft | 482 kts | 280° |
| 2026-05-05 15:23 | 55.94028 | 77.27260 | 33855 ft | 481 kts | 280° |
| 2026-05-05 15:24 | 55.95190 | 77.15545 | 33857 ft | 480 kts | 280° |
| 2026-05-05 15:24 | 55.96332 | 77.03899 | 33857 ft | 479 kts | 280° |
| 2026-05-05 15:25 | 55.97470 | 76.92187 | 33858 ft | 479 kts | 279° |
| 2026-05-05 15:25 | 55.98596 | 76.80468 | 33858 ft | 479 kts | 279° |
| 2026-05-05 15:26 | 55.99712 | 76.68734 | 33859 ft | 479 kts | 279° |
| 2026-05-05 15:26 | 56.00818 | 76.56982 | 33859 ft | 480 kts | 279° |
| 2026-05-05 15:27 | 56.01913 | 76.45225 | 33858 ft | 480 kts | 279° |
| 2026-05-05 15:27 | 56.02998 | 76.33439 | 33857 ft | 480 kts | 279° |
| 2026-05-05 15:28 | 56.04071 | 76.21663 | 33858 ft | 480 kts | 279° |
| 2026-05-05 15:28 | 56.05132 | 76.09891 | 33858 ft | 480 kts | 279° |
| 2026-05-05 15:29 | 56.06181 | 75.98109 | 33857 ft | 479 kts | 279° |
| 2026-05-05 15:29 | 56.07216 | 75.86362 | 33857 ft | 479 kts | 279° |
| 2026-05-05 15:30 | 56.08245 | 75.74554 | 33857 ft | 479 kts | 279° |
| 2026-05-05 15:30 | 56.09260 | 75.62760 | 33857 ft | 479 kts | 278° |
| 2026-05-05 15:31 | 56.10266 | 75.50934 | 33857 ft | 479 kts | 278° |
| 2026-05-05 15:31 | 56.11257 | 75.39151 | 33857 ft | 479 kts | 278° |
| 2026-05-05 15:32 | 56.12233 | 75.27413 | 33857 ft | 479 kts | 278° |
| 2026-05-05 15:32 | 56.13203 | 75.15596 | 33860 ft | 479 kts | 278° |
| 2026-05-05 15:33 | 56.14163 | 75.03766 | 33856 ft | 479 kts | 278° |
| 2026-05-05 15:33 | 56.15111 | 74.91926 | 33858 ft | 479 kts | 278° |
| 2026-05-05 15:34 | 56.16046 | 74.80117 | 33857 ft | 478 kts | 278° |
| 2026-05-05 15:34 | 56.16968 | 74.68310 | 33857 ft | 478 kts | 278° |
| 2026-05-05 15:35 | 56.17878 | 74.56519 | 33857 ft | 478 kts | 278° |
| 2026-05-05 15:35 | 56.18778 | 74.44700 | 33857 ft | 478 kts | 277° |
| 2026-05-05 15:36 | 56.19667 | 74.32876 | 33858 ft | 478 kts | 277° |
| 2026-05-05 15:36 | 56.20544 | 74.21058 | 33858 ft | 478 kts | 277° |
| 2026-05-05 15:37 | 56.21409 | 74.09240 | 33858 ft | 478 kts | 277° |
| 2026-05-05 15:37 | 56.22262 | 73.97458 | 33858 ft | 478 kts | 277° |
| 2026-05-05 15:38 | 56.22663 | 73.85480 | 33857 ft | 478 kts | 270° |
| 2026-05-05 15:38 | 56.22588 | 73.73561 | 33857 ft | 477 kts | 269° |
| 2026-05-05 15:39 | 56.22492 | 73.61625 | 33857 ft | 477 kts | 269° |
| 2026-05-05 15:39 | 56.22417 | 73.49851 | 33858 ft | 477 kts | 269° |
| 2026-05-05 15:40 | 56.22344 | 73.37759 | 33858 ft | 477 kts | 269° |
| 2026-05-05 15:40 | 56.22265 | 73.25834 | 33858 ft | 477 kts | 269° |
| 2026-05-05 15:41 | 56.22174 | 73.14006 | 33858 ft | 477 kts | 269° |
| 2026-05-05 15:41 | 56.22069 | 73.02092 | 33857 ft | 477 kts | 269° |
| 2026-05-05 15:42 | 56.21953 | 72.90149 | 33858 ft | 477 kts | 269° |
| 2026-05-05 15:42 | 56.21825 | 72.78242 | 33858 ft | 477 kts | 269° |
| 2026-05-05 15:43 | 56.21686 | 72.66331 | 33859 ft | 477 kts | 269° |
| 2026-05-05 15:43 | 56.21535 | 72.54419 | 33857 ft | 476 kts | 269° |
| 2026-05-05 15:44 | 56.21374 | 72.42542 | 33858 ft | 476 kts | 268° |
| 2026-05-05 15:44 | 56.21201 | 72.30692 | 33858 ft | 476 kts | 268° |
| 2026-05-05 15:45 | 56.21017 | 72.18804 | 33858 ft | 476 kts | 268° |
| 2026-05-05 15:45 | 56.20820 | 72.06879 | 33858 ft | 476 kts | 268° |
| 2026-05-05 15:46 | 56.20614 | 71.95005 | 33858 ft | 476 kts | 268° |
| 2026-05-05 15:46 | 56.20395 | 71.83132 | 33858 ft | 476 kts | 268° |
| 2026-05-05 15:47 | 56.20165 | 71.71265 | 33858 ft | 476 kts | 268° |
| 2026-05-05 15:47 | 56.19924 | 71.59386 | 33858 ft | 476 kts | 268° |
| 2026-05-05 15:48 | 56.19671 | 71.47514 | 33859 ft | 476 kts | 268° |
| 2026-05-05 15:48 | 56.19408 | 71.35656 | 33857 ft | 475 kts | 268° |
| 2026-05-05 15:49 | 56.19133 | 71.23800 | 33858 ft | 475 kts | 268° |
| 2026-05-05 15:49 | 56.18848 | 71.12024 | 33857 ft | 475 kts | 267° |
| 2026-05-05 15:50 | 56.18551 | 71.00187 | 33857 ft | 475 kts | 267° |
| 2026-05-05 15:50 | 56.18242 | 70.88346 | 33857 ft | 475 kts | 267° |
| 2026-05-05 15:51 | 56.17923 | 70.76512 | 33858 ft | 475 kts | 267° |
| 2026-05-05 15:51 | 56.17592 | 70.64686 | 33858 ft | 475 kts | 267° |
| 2026-05-05 15:52 | 56.17249 | 70.52841 | 33858 ft | 475 kts | 267° |
| 2026-05-05 15:52 | 56.16895 | 70.41010 | 33858 ft | 475 kts | 267° |
| 2026-05-05 15:53 | 56.16530 | 70.29182 | 33859 ft | 475 kts | 266° |
| 2026-05-05 15:53 | 56.16154 | 70.17366 | 33856 ft | 474 kts | 266° |
| 2026-05-05 15:54 | 56.15767 | 70.05557 | 33857 ft | 474 kts | 266° |
| 2026-05-05 15:54 | 56.15369 | 69.93772 | 33857 ft | 473 kts | 266° |
| 2026-05-05 15:55 | 56.14960 | 69.81974 | 33857 ft | 473 kts | 266° |
| 2026-05-05 15:55 | 56.14543 | 69.70207 | 33858 ft | 473 kts | 266° |
| 2026-05-05 15:56 | 56.14222 | 69.58500 | 33864 ft | 473 kts | 269° |
| 2026-05-05 15:56 | 56.14189 | 69.46710 | 33859 ft | 473 kts | 271° |
| 2026-05-05 15:57 | 56.14846 | 69.34990 | 33858 ft | 473 kts | 280° |
| 2026-05-05 15:57 | 56.16088 | 69.23396 | 33876 ft | 473 kts | 281° |
| 2026-05-05 15:58 | 56.17329 | 69.11812 | 33909 ft | 473 kts | 281° |
| 2026-05-05 15:58 | 56.18532 | 69.00200 | 33913 ft | 474 kts | 280° |
| 2026-05-05 15:59 | 56.19711 | 68.88557 | 33914 ft | 474 kts | 280° |
| 2026-05-05 15:59 | 56.20876 | 68.76906 | 33912 ft | 474 kts | 280° |
| 2026-05-05 16:00 | 56.22031 | 68.65247 | 33912 ft | 474 kts | 280° |
| 2026-05-05 16:00 | 56.23175 | 68.53588 | 33915 ft | 473 kts | 280° |
| 2026-05-05 16:01 | 56.24307 | 68.41937 | 33914 ft | 473 kts | 280° |
| 2026-05-05 16:01 | 56.25239 | 68.32258 | 33910 ft | 473 kts | 279° |
| 2026-05-05 16:02 | 56.26350 | 68.20601 | 33912 ft | 473 kts | 279° |
| 2026-05-05 16:02 | 56.27449 | 68.08946 | 33911 ft | 472 kts | 279° |
| 2026-05-05 16:03 | 56.28537 | 67.97293 | 33912 ft | 472 kts | 279° |
| 2026-05-05 16:03 | 56.29615 | 67.85620 | 33911 ft | 472 kts | 279° |
| 2026-05-05 16:04 | 56.30854 | 67.72052 | 33911 ft | 473 kts | 279° |
| 2026-05-05 16:04 | 56.31737 | 67.62266 | 33913 ft | 473 kts | 279° |
| 2026-05-05 16:05 | 56.32782 | 67.50579 | 33912 ft | 472 kts | 279° |
| 2026-05-05 16:05 | 56.33815 | 67.38884 | 33912 ft | 472 kts | 279° |
| 2026-05-05 16:06 | 56.34837 | 67.27195 | 33915 ft | 472 kts | 279° |
| 2026-05-05 16:06 | 56.35846 | 67.15513 | 33912 ft | 472 kts | 278° |
| 2026-05-05 16:07 | 56.36839 | 67.03900 | 33915 ft | 472 kts | 278° |
| 2026-05-05 16:07 | 56.37826 | 66.92204 | 33911 ft | 471 kts | 278° |
| 2026-05-05 16:08 | 56.38803 | 66.80501 | 33911 ft | 471 kts | 278° |
| 2026-05-05 16:08 | 56.39769 | 66.68796 | 33913 ft | 471 kts | 278° |
| 2026-05-05 16:09 | 56.40724 | 66.57092 | 33912 ft | 471 kts | 278° |
| 2026-05-05 16:09 | 56.41669 | 66.45375 | 33912 ft | 471 kts | 278° |
| 2026-05-05 16:10 | 56.42606 | 66.33647 | 33913 ft | 471 kts | 278° |
| 2026-05-05 16:10 | 56.43533 | 66.21929 | 33913 ft | 471 kts | 278° |
| 2026-05-05 16:11 | 56.44448 | 66.10212 | 33911 ft | 471 kts | 278° |
| 2026-05-05 16:12 | 56.46244 | 65.86779 | 33910 ft | 470 kts | 278° |
| 2026-05-05 16:13 | 56.48420 | 65.57511 | 33911 ft | 469 kts | 277° |
| 2026-05-05 16:13 | 56.49272 | 65.45812 | 33913 ft | 469 kts | 277° |
| 2026-05-05 16:14 | 56.50946 | 65.22350 | 33913 ft | 470 kts | 277° |
| 2026-05-05 16:15 | 56.52580 | 64.98876 | 33911 ft | 470 kts | 277° |
| 2026-05-05 16:16 | 56.54172 | 64.75346 | 33913 ft | 471 kts | 277° |
| 2026-05-05 16:17 | 56.55337 | 64.57686 | 33913 ft | 471 kts | 277° |
| 2026-05-05 16:18 | 56.56473 | 64.40082 | 33912 ft | 470 kts | 276° |
| 2026-05-05 16:19 | 56.57586 | 64.22425 | 33915 ft | 470 kts | 276° |
| 2026-05-05 16:19 | 56.58673 | 64.04776 | 33911 ft | 469 kts | 276° |
| 2026-05-05 16:20 | 56.60083 | 63.81248 | 33911 ft | 469 kts | 276° |
| 2026-05-05 16:22 | 56.61790 | 63.51791 | 33913 ft | 469 kts | 276° |
| 2026-05-05 16:23 | 56.63118 | 63.28195 | 33915 ft | 469 kts | 276° |
| 2026-05-05 16:23 | 56.64080 | 63.10474 | 33911 ft | 470 kts | 275° |
| 2026-05-05 16:24 | 56.64709 | 62.98661 | 33913 ft | 470 kts | 275° |
| 2026-05-05 16:25 | 56.65632 | 62.80925 | 33912 ft | 470 kts | 275° |
| 2026-05-05 16:25 | 56.66530 | 62.63196 | 33911 ft | 470 kts | 275° |
| 2026-05-05 16:26 | 56.67688 | 62.39529 | 33912 ft | 470 kts | 275° |
| 2026-05-05 16:27 | 56.68246 | 62.27764 | 33911 ft | 470 kts | 275° |
| 2026-05-05 16:27 | 56.68797 | 62.15936 | 33911 ft | 470 kts | 275° |
| 2026-05-05 16:28 | 56.69336 | 62.04096 | 33911 ft | 470 kts | 275° |
| 2026-05-05 16:28 | 56.69865 | 61.92251 | 33916 ft | 470 kts | 275° |
| 2026-05-05 16:29 | 56.70382 | 61.80402 | 33911 ft | 470 kts | 274° |
| 2026-05-05 16:29 | 56.70888 | 61.68538 | 33911 ft | 470 kts | 274° |
| 2026-05-05 16:30 | 56.71383 | 61.56679 | 33911 ft | 470 kts | 274° |
| 2026-05-05 16:30 | 56.71867 | 61.44814 | 33915 ft | 470 kts | 274° |
| 2026-05-05 16:31 | 56.72293 | 61.34121 | 33911 ft | 470 kts | 274° |
| 2026-05-05 16:31 | 56.72755 | 61.22239 | 33912 ft | 470 kts | 274° |
| 2026-05-05 16:32 | 56.73207 | 61.10363 | 33915 ft | 470 kts | 274° |
| 2026-05-05 16:32 | 56.73647 | 60.98469 | 33911 ft | 471 kts | 274° |
| 2026-05-05 16:33 | 56.74078 | 60.86577 | 33911 ft | 471 kts | 274° |
| 2026-05-05 16:33 | 56.74622 | 60.74708 | 33910 ft | 470 kts | 277° |
| 2026-05-05 16:34 | 56.75474 | 60.62864 | 33910 ft | 470 kts | 277° |
| 2026-05-05 16:34 | 56.76333 | 60.51064 | 33913 ft | 470 kts | 277° |
| 2026-05-05 16:35 | 56.77155 | 60.39235 | 33910 ft | 470 kts | 277° |
| 2026-05-05 16:35 | 56.77955 | 60.27417 | 33913 ft | 470 kts | 277° |
| 2026-05-05 16:36 | 56.78742 | 60.15675 | 33911 ft | 470 kts | 277° |
| 2026-05-05 16:36 | 56.79496 | 60.03765 | 33915 ft | 469 kts | 276° |
| 2026-05-05 16:37 | 56.80197 | 59.92002 | 33911 ft | 469 kts | 276° |
| 2026-05-05 16:37 | 56.80897 | 59.80142 | 33910 ft | 470 kts | 276° |
| 2026-05-05 16:38 | 56.81591 | 59.68284 | 33911 ft | 470 kts | 276° |
| 2026-05-05 16:38 | 56.82275 | 59.56418 | 33915 ft | 470 kts | 276° |
| 2026-05-05 16:39 | 56.82949 | 59.44541 | 33915 ft | 470 kts | 276° |
| 2026-05-05 16:39 | 56.83611 | 59.32658 | 33910 ft | 470 kts | 276° |
| 2026-05-05 16:40 | 56.84262 | 59.20765 | 33916 ft | 471 kts | 276° |
| 2026-05-05 16:40 | 56.84887 | 59.09172 | 33912 ft | 470 kts | 275° |
| 2026-05-05 16:41 | 56.85276 | 58.97260 | 33913 ft | 470 kts | 272° |
| 2026-05-05 16:41 | 56.85461 | 58.85316 | 33913 ft | 470 kts | 271° |
| 2026-05-05 16:42 | 56.85675 | 58.73384 | 33911 ft | 470 kts | 272° |
| 2026-05-05 16:42 | 56.85981 | 58.61453 | 33911 ft | 470 kts | 272° |
| 2026-05-05 16:43 | 56.86284 | 58.49559 | 33911 ft | 469 kts | 272° |
| 2026-05-05 16:43 | 56.86560 | 58.37704 | 33912 ft | 469 kts | 272° |
| 2026-05-05 16:44 | 56.86818 | 58.25781 | 33913 ft | 469 kts | 272° |
| 2026-05-05 16:44 | 56.87062 | 58.13868 | 33912 ft | 469 kts | 272° |
| 2026-05-05 16:45 | 56.87296 | 58.01905 | 33912 ft | 469 kts | 272° |
| 2026-05-05 16:45 | 56.87517 | 57.90058 | 33904 ft | 470 kts | 272° |
| 2026-05-05 16:46 | 56.87729 | 57.78069 | 33847 ft | 471 kts | 272° |
| 2026-05-05 16:46 | 56.87931 | 57.66016 | 33839 ft | 470 kts | 271° |
| 2026-05-05 16:47 | 56.88119 | 57.54159 | 33827 ft | 470 kts | 271° |
| 2026-05-05 16:47 | 56.88295 | 57.42267 | 33827 ft | 469 kts | 271° |
| 2026-05-05 16:48 | 56.88462 | 57.30282 | 33827 ft | 469 kts | 271° |
| 2026-05-05 16:48 | 56.88616 | 57.18356 | 33829 ft | 469 kts | 271° |
| 2026-05-05 16:49 | 56.88737 | 57.08372 | 33828 ft | 469 kts | 271° |
| 2026-05-05 16:49 | 56.88869 | 56.96518 | 33828 ft | 469 kts | 271° |
| 2026-05-05 16:50 | 56.88992 | 56.84568 | 33834 ft | 469 kts | 271° |
| 2026-05-05 16:50 | 56.89102 | 56.72624 | 33828 ft | 469 kts | 271° |
| 2026-05-05 16:51 | 56.89202 | 56.60707 | 33828 ft | 469 kts | 271° |
| 2026-05-05 16:51 | 56.89289 | 56.48826 | 33833 ft | 469 kts | 271° |
| 2026-05-05 16:52 | 56.89366 | 56.36833 | 33827 ft | 469 kts | 270° |
| 2026-05-05 16:52 | 56.89431 | 56.24932 | 33832 ft | 469 kts | 270° |
| 2026-05-05 16:53 | 56.89485 | 56.12964 | 33831 ft | 470 kts | 270° |
| 2026-05-05 16:53 | 56.89528 | 56.01018 | 33829 ft | 470 kts | 270° |
| 2026-05-05 16:54 | 56.89559 | 55.89073 | 33827 ft | 470 kts | 270° |
| 2026-05-05 16:54 | 56.89579 | 55.77240 | 33828 ft | 470 kts | 270° |
| 2026-05-05 16:55 | 56.89587 | 55.65272 | 33830 ft | 470 kts | 270° |
| 2026-05-05 16:55 | 56.89584 | 55.53316 | 33830 ft | 469 kts | 270° |
| 2026-05-05 16:56 | 56.89570 | 55.41325 | 33833 ft | 469 kts | 270° |
| 2026-05-05 16:56 | 56.89544 | 55.29434 | 33834 ft | 469 kts | 270° |
| 2026-05-05 16:57 | 56.89507 | 55.17505 | 33833 ft | 469 kts | 269° |
| 2026-05-05 16:57 | 56.89459 | 55.05575 | 33828 ft | 469 kts | 269° |
| 2026-05-05 16:58 | 56.89399 | 54.93660 | 33828 ft | 469 kts | 269° |
| 2026-05-05 16:58 | 56.89328 | 54.81712 | 33834 ft | 469 kts | 269° |
| 2026-05-05 16:59 | 56.89245 | 54.69758 | 33835 ft | 469 kts | 269° |
| 2026-05-05 16:59 | 56.89152 | 54.57861 | 33828 ft | 469 kts | 269° |
| 2026-05-05 17:00 | 56.89047 | 54.45947 | 33832 ft | 469 kts | 269° |
| 2026-05-05 17:00 | 56.88930 | 54.33998 | 33833 ft | 469 kts | 269° |
| 2026-05-05 17:01 | 56.88802 | 54.22134 | 33829 ft | 469 kts | 269° |
| 2026-05-05 17:01 | 56.88663 | 54.10232 | 33828 ft | 469 kts | 269° |
| 2026-05-05 17:02 | 56.88513 | 53.98287 | 33828 ft | 469 kts | 269° |
| 2026-05-05 17:02 | 56.88350 | 53.86291 | 33832 ft | 468 kts | 268° |
| 2026-05-05 17:03 | 56.88177 | 53.74389 | 33828 ft | 469 kts | 268° |
| 2026-05-05 17:03 | 56.87994 | 53.62583 | 33832 ft | 469 kts | 268° |
| 2026-05-05 17:04 | 56.87798 | 53.50688 | 33828 ft | 469 kts | 268° |
| 2026-05-05 17:04 | 56.87591 | 53.38783 | 33871 ft | 468 kts | 268° |
| 2026-05-05 17:05 | 56.87374 | 53.26933 | 33904 ft | 468 kts | 268° |
| 2026-05-05 17:05 | 56.87144 | 53.15049 | 33913 ft | 468 kts | 268° |
| 2026-05-05 17:06 | 56.86903 | 53.03103 | 33911 ft | 469 kts | 268° |
| 2026-05-05 17:06 | 56.86651 | 52.91223 | 33911 ft | 470 kts | 268° |
| 2026-05-05 17:07 | 56.86385 | 52.79246 | 33912 ft | 470 kts | 268° |
| 2026-05-05 17:07 | 56.86110 | 52.67342 | 33914 ft | 471 kts | 267° |
| 2026-05-05 17:08 | 56.85824 | 52.55449 | 33915 ft | 471 kts | 267° |
| 2026-05-05 17:08 | 56.85525 | 52.43514 | 33911 ft | 471 kts | 267° |
| 2026-05-05 17:09 | 56.85214 | 52.31543 | 33911 ft | 471 kts | 267° |
| 2026-05-05 17:09 | 56.84895 | 52.19681 | 33916 ft | 470 kts | 267° |
| 2026-05-05 17:10 | 56.84561 | 52.07709 | 33910 ft | 470 kts | 267° |
| 2026-05-05 17:10 | 56.84216 | 51.95755 | 33911 ft | 470 kts | 267° |
| 2026-05-05 17:11 | 56.83861 | 51.83852 | 33915 ft | 469 kts | 266° |
| 2026-05-05 17:11 | 56.83494 | 51.71940 | 33913 ft | 469 kts | 266° |
| 2026-05-05 17:12 | 56.83117 | 51.60056 | 33910 ft | 469 kts | 266° |
| 2026-05-05 17:12 | 56.82728 | 51.48146 | 33910 ft | 469 kts | 266° |
| 2026-05-05 17:13 | 56.82327 | 51.36240 | 33911 ft | 469 kts | 266° |
| 2026-05-05 17:13 | 56.81916 | 51.24352 | 33915 ft | 469 kts | 266° |
| 2026-05-05 17:14 | 56.81495 | 51.12487 | 33914 ft | 470 kts | 266° |
| 2026-05-05 17:14 | 56.81061 | 51.00612 | 33911 ft | 470 kts | 266° |
| 2026-05-05 17:15 | 56.80615 | 50.88712 | 33914 ft | 470 kts | 266° |
| 2026-05-05 17:15 | 56.80156 | 50.76775 | 33915 ft | 470 kts | 266° |
| 2026-05-05 17:16 | 56.79687 | 50.64861 | 33891 ft | 470 kts | 266° |
| 2026-05-05 17:16 | 56.79207 | 50.52965 | 33883 ft | 470 kts | 265° |
| 2026-05-05 17:17 | 56.78719 | 50.41169 | 33885 ft | 470 kts | 265° |
| 2026-05-05 17:17 | 56.78218 | 50.29299 | 33884 ft | 469 kts | 265° |
| 2026-05-05 17:18 | 56.77706 | 50.17467 | 33885 ft | 469 kts | 265° |
| 2026-05-05 17:18 | 56.77181 | 50.05583 | 33885 ft | 469 kts | 265° |
| 2026-05-05 17:19 | 56.76653 | 49.93850 | 33885 ft | 469 kts | 265° |
| 2026-05-05 17:19 | 56.76109 | 49.82025 | 33888 ft | 469 kts | 265° |
| 2026-05-05 17:20 | 56.75719 | 49.69986 | 33881 ft | 470 kts | 268° |
| 2026-05-05 17:20 | 56.75453 | 49.58102 | 33885 ft | 470 kts | 268° |
| 2026-05-05 17:21 | 56.75158 | 49.46210 | 33884 ft | 470 kts | 267° |
| 2026-05-05 17:22 | 56.74655 | 49.28470 | 33884 ft | 470 kts | 267° |
| 2026-05-05 17:22 | 56.74299 | 49.16562 | 33885 ft | 470 kts | 267° |
| 2026-05-05 17:23 | 56.73933 | 49.04662 | 33884 ft | 471 kts | 266° |
| 2026-05-05 17:23 | 56.73555 | 48.92733 | 33880 ft | 472 kts | 266° |
| 2026-05-05 17:24 | 56.73166 | 48.80791 | 33837 ft | 473 kts | 266° |
| 2026-05-05 17:24 | 56.72765 | 48.68847 | 33829 ft | 472 kts | 266° |
| 2026-05-05 17:25 | 56.72354 | 48.56906 | 33834 ft | 472 kts | 266° |
| 2026-05-05 17:25 | 56.71931 | 48.44989 | 33831 ft | 471 kts | 266° |
| 2026-05-05 17:26 | 56.71498 | 48.33087 | 33827 ft | 471 kts | 266° |
| 2026-05-05 17:26 | 56.71055 | 48.21197 | 33831 ft | 471 kts | 266° |
| 2026-05-05 17:27 | 56.70602 | 48.09316 | 33834 ft | 470 kts | 266° |
| 2026-05-05 17:27 | 56.70137 | 47.97441 | 33830 ft | 470 kts | 266° |
| 2026-05-05 17:28 | 56.69662 | 47.85585 | 33833 ft | 470 kts | 265° |
| 2026-05-05 17:28 | 56.69175 | 47.73719 | 33828 ft | 470 kts | 265° |
| 2026-05-05 17:29 | 56.68679 | 47.61921 | 33828 ft | 470 kts | 265° |
| 2026-05-05 17:29 | 56.68171 | 47.50061 | 33834 ft | 471 kts | 265° |
| 2026-05-05 17:30 | 56.67651 | 47.38192 | 33830 ft | 471 kts | 265° |
| 2026-05-05 17:30 | 56.66641 | 47.26452 | 33830 ft | 471 kts | 255° |
| 2026-05-05 17:31 | 56.64521 | 47.15207 | 33837 ft | 470 kts | 249° |
| 2026-05-05 17:31 | 56.62222 | 47.04073 | 33833 ft | 471 kts | 249° |
| 2026-05-05 17:32 | 56.59948 | 46.92911 | 33826 ft | 471 kts | 250° |
| 2026-05-05 17:32 | 56.57688 | 46.81757 | 33833 ft | 471 kts | 250° |
| 2026-05-05 17:33 | 56.55434 | 46.70686 | 33834 ft | 471 kts | 250° |
| 2026-05-05 17:33 | 56.53138 | 46.59484 | 33831 ft | 471 kts | 249° |
| 2026-05-05 17:34 | 56.50857 | 46.48455 | 33827 ft | 471 kts | 249° |
| 2026-05-05 17:34 | 56.48553 | 46.37369 | 33827 ft | 471 kts | 249° |
| 2026-05-05 17:35 | 56.46237 | 46.26279 | 33834 ft | 471 kts | 249° |
| 2026-05-05 17:35 | 56.43915 | 46.15218 | 33833 ft | 471 kts | 249° |
| 2026-05-05 17:36 | 56.41584 | 46.04171 | 33832 ft | 470 kts | 249° |
| 2026-05-05 17:36 | 56.39246 | 45.93151 | 33827 ft | 471 kts | 249° |
| 2026-05-05 17:37 | 56.36895 | 45.82131 | 33827 ft | 471 kts | 249° |
| 2026-05-05 17:37 | 56.34532 | 45.71111 | 33831 ft | 471 kts | 249° |
| 2026-05-05 17:38 | 56.32161 | 45.60114 | 33829 ft | 471 kts | 249° |
| 2026-05-05 17:38 | 56.29781 | 45.49132 | 33833 ft | 471 kts | 249° |
| 2026-05-05 17:39 | 56.27796 | 45.40010 | 33827 ft | 471 kts | 249° |
| 2026-05-05 17:39 | 56.25398 | 45.29051 | 33832 ft | 471 kts | 248° |
| 2026-05-05 17:40 | 56.22991 | 45.18103 | 33834 ft | 471 kts | 248° |
| 2026-05-05 17:40 | 56.20574 | 45.07156 | 33833 ft | 471 kts | 248° |
| 2026-05-05 17:41 | 56.18151 | 44.96236 | 33827 ft | 471 kts | 248° |
| 2026-05-05 17:41 | 56.15719 | 44.85328 | 33826 ft | 471 kts | 248° |
| 2026-05-05 17:42 | 56.13276 | 44.74426 | 33831 ft | 471 kts | 248° |
| 2026-05-05 17:42 | 56.11260 | 44.63251 | 33832 ft | 471 kts | 257° |
| 2026-05-05 17:43 | 56.10358 | 44.51625 | 33835 ft | 471 kts | 264° |
| 2026-05-05 17:43 | 56.09714 | 44.40010 | 33828 ft | 472 kts | 264° |
| 2026-05-05 17:44 | 56.09032 | 44.28317 | 33834 ft | 472 kts | 264° |
| 2026-05-05 17:44 | 56.08314 | 44.16630 | 33835 ft | 472 kts | 263° |
| 2026-05-05 17:45 | 56.07578 | 44.04947 | 33834 ft | 472 kts | 263° |
| 2026-05-05 17:45 | 56.06831 | 43.93268 | 33828 ft | 472 kts | 263° |
| 2026-05-05 17:46 | 56.06074 | 43.81592 | 33833 ft | 472 kts | 263° |
| 2026-05-05 17:46 | 56.05306 | 43.69920 | 33833 ft | 472 kts | 263° |
| 2026-05-05 17:47 | 56.04528 | 43.58255 | 33827 ft | 472 kts | 263° |
| 2026-05-05 17:47 | 56.03740 | 43.46583 | 33832 ft | 472 kts | 263° |
| 2026-05-05 17:48 | 56.02971 | 43.34937 | 33835 ft | 472 kts | 265° |
| 2026-05-05 17:48 | 56.02956 | 43.23202 | 33835 ft | 472 kts | 272° |
| 2026-05-05 17:49 | 56.03207 | 43.11485 | 33828 ft | 472 kts | 272° |
| 2026-05-05 17:49 | 56.03418 | 42.99726 | 33833 ft | 473 kts | 271° |
| 2026-05-05 17:50 | 56.03590 | 42.87970 | 33834 ft | 473 kts | 271° |
| 2026-05-05 17:50 | 56.03748 | 42.76218 | 33828 ft | 473 kts | 271° |
| 2026-05-05 17:51 | 56.03898 | 42.64524 | 33828 ft | 473 kts | 271° |
| 2026-05-05 17:51 | 56.03406 | 42.52817 | 33831 ft | 473 kts | 258° |
| 2026-05-05 17:52 | 56.01463 | 42.41604 | 33833 ft | 473 kts | 248° |
| 2026-05-05 17:52 | 55.98923 | 42.30767 | 33825 ft | 473 kts | 247° |
| 2026-05-05 17:53 | 55.96389 | 42.19926 | 33833 ft | 473 kts | 248° |
| 2026-05-05 17:53 | 55.93885 | 42.09066 | 33834 ft | 473 kts | 248° |
| 2026-05-05 17:54 | 55.91378 | 41.98196 | 33827 ft | 473 kts | 248° |
| 2026-05-05 17:54 | 55.88861 | 41.87355 | 33830 ft | 473 kts | 248° |
| 2026-05-05 17:55 | 55.86991 | 41.76235 | 33838 ft | 473 kts | 259° |
| 2026-05-05 17:55 | 55.86262 | 41.64612 | 33833 ft | 473 kts | 267° |
| 2026-05-05 17:56 | 55.85959 | 41.52904 | 33820 ft | 474 kts | 267° |
| 2026-05-05 17:56 | 55.85638 | 41.41178 | 33771 ft | 475 kts | 267° |
| 2026-05-05 17:57 | 55.85273 | 41.29442 | 33772 ft | 475 kts | 266° |
| 2026-05-05 17:57 | 55.84886 | 41.17707 | 33780 ft | 475 kts | 266° |
| 2026-05-05 17:58 | 55.84486 | 41.05973 | 33779 ft | 475 kts | 266° |
| 2026-05-05 17:58 | 55.84078 | 40.94244 | 33776 ft | 475 kts | 266° |
| 2026-05-05 17:59 | 55.83659 | 40.82521 | 33779 ft | 475 kts | 266° |
| 2026-05-05 17:59 | 55.83231 | 40.70806 | 33774 ft | 474 kts | 266° |
| 2026-05-05 18:00 | 55.82789 | 40.59098 | 33760 ft | 475 kts | 266° |
| 2026-05-05 18:00 | 55.82553 | 40.53155 | 32949 ft | 487 kts | 266° |
| 2026-05-05 18:00 | 55.82308 | 40.47142 | 32121 ft | 488 kts | 266° |
| 2026-05-05 18:00 | 55.82058 | 40.41102 | 31137 ft | 490 kts | 265° |
| 2026-05-05 18:01 | 55.81807 | 40.35060 | 30199 ft | 490 kts | 265° |
| 2026-05-05 18:01 | 55.81559 | 40.29175 | 29500 ft | 485 kts | 265° |
| 2026-05-05 18:01 | 55.81303 | 40.23132 | 28745 ft | 481 kts | 265° |
| 2026-05-05 18:01 | 55.81054 | 40.17308 | 28030 ft | 478 kts | 265° |
| 2026-05-05 18:02 | 55.80801 | 40.11451 | 27310 ft | 474 kts | 265° |
| 2026-05-05 18:02 | 55.80547 | 40.05638 | 26611 ft | 471 kts | 265° |
| 2026-05-05 18:02 | 55.80294 | 39.99930 | 26437 ft | 456 kts | 265° |
| 2026-05-05 18:02 | 55.80047 | 39.94382 | 26239 ft | 443 kts | 265° |
| 2026-05-05 18:03 | 55.79805 | 39.89007 | 26046 ft | 431 kts | 265° |
| 2026-05-05 18:03 | 55.79567 | 39.83777 | 25877 ft | 419 kts | 265° |
| 2026-05-05 18:03 | 55.79319 | 39.78659 | 25714 ft | 408 kts | 264° |
| 2026-05-05 18:03 | 55.79009 | 39.73721 | 25471 ft | 397 kts | 263° |
| 2026-05-05 18:04 | 55.78678 | 39.68963 | 25211 ft | 385 kts | 263° |
| 2026-05-05 18:04 | 55.78343 | 39.64206 | 24998 ft | 389 kts | 263° |
| 2026-05-05 18:04 | 55.78013 | 39.59441 | 24770 ft | 388 kts | 263° |
| 2026-05-05 18:04 | 55.77688 | 39.54685 | 24530 ft | 387 kts | 263° |
| 2026-05-05 18:05 | 55.77368 | 39.49962 | 24296 ft | 385 kts | 263° |
| 2026-05-05 18:05 | 55.77048 | 39.45255 | 24065 ft | 382 kts | 263° |
| 2026-05-05 18:05 | 55.76729 | 39.40586 | 23837 ft | 380 kts | 263° |
| 2026-05-05 18:05 | 55.76408 | 39.35956 | 23731 ft | 374 kts | 263° |
| 2026-05-05 18:06 | 55.76090 | 39.31405 | 23626 ft | 369 kts | 263° |
| 2026-05-05 18:06 | 55.75879 | 39.28417 | 23565 ft | 369 kts | 263° |
| 2026-05-05 18:06 | 55.75449 | 39.22334 | 23460 ft | 373 kts | 263° |
| 2026-05-05 18:06 | 55.75123 | 39.17735 | 23356 ft | 376 kts | 263° |
| 2026-05-05 18:07 | 55.74795 | 39.13133 | 23245 ft | 376 kts | 263° |
| 2026-05-05 18:07 | 55.74465 | 39.08531 | 23148 ft | 375 kts | 263° |
| 2026-05-05 18:07 | 55.74136 | 39.03948 | 23053 ft | 374 kts | 263° |
| 2026-05-05 18:07 | 55.73804 | 38.99364 | 22953 ft | 374 kts | 263° |
| 2026-05-05 18:08 | 55.73472 | 38.94803 | 22857 ft | 373 kts | 263° |
| 2026-05-05 18:08 | 55.73327 | 38.90220 | 22525 ft | 374 kts | 272° |
| 2026-05-05 18:08 | 55.73537 | 38.85629 | 22171 ft | 371 kts | 276° |
| 2026-05-05 18:08 | 55.73844 | 38.81108 | 21795 ft | 368 kts | 277° |
| 2026-05-05 18:09 | 55.74141 | 38.76613 | 21421 ft | 365 kts | 276° |
| 2026-05-05 18:09 | 55.74399 | 38.72161 | 21049 ft | 362 kts | 275° |
| 2026-05-05 18:09 | 55.74627 | 38.67731 | 20684 ft | 358 kts | 275° |
| 2026-05-05 18:09 | 55.74839 | 38.63346 | 20321 ft | 355 kts | 275° |
| 2026-05-05 18:10 | 55.75073 | 38.58999 | 19952 ft | 350 kts | 280° |
| 2026-05-05 18:10 | 55.75872 | 38.55005 | 19844 ft | 342 kts | 301° |
| 2026-05-05 18:10 | 55.77211 | 38.51538 | 19838 ft | 349 kts | 306° |
| 2026-05-05 18:10 | 55.78685 | 38.47969 | 19846 ft | 356 kts | 306° |
| 2026-05-05 18:11 | 55.80121 | 38.44442 | 19839 ft | 358 kts | 306° |
| 2026-05-05 18:11 | 55.81570 | 38.40820 | 19819 ft | 349 kts | 305° |
| 2026-05-05 18:11 | 55.82924 | 38.37408 | 19806 ft | 337 kts | 306° |
| 2026-05-05 18:11 | 55.84323 | 38.34073 | 19438 ft | 336 kts | 308° |
| 2026-05-05 18:12 | 55.85743 | 38.30833 | 19103 ft | 325 kts | 308° |
| 2026-05-05 18:12 | 55.87124 | 38.27702 | 18811 ft | 322 kts | 308° |
| 2026-05-05 18:12 | 55.88512 | 38.24539 | 18510 ft | 325 kts | 308° |
| 2026-05-05 18:12 | 55.89902 | 38.21353 | 18206 ft | 326 kts | 308° |
| 2026-05-05 18:13 | 55.91290 | 38.18157 | 17888 ft | 326 kts | 308° |
| 2026-05-05 18:13 | 55.92674 | 38.14958 | 17570 ft | 324 kts | 307° |
| 2026-05-05 18:13 | 55.94044 | 38.11783 | 17256 ft | 321 kts | 307° |
| 2026-05-05 18:13 | 55.95394 | 38.08648 | 16942 ft | 317 kts | 307° |
| 2026-05-05 18:14 | 55.96732 | 38.05541 | 16645 ft | 314 kts | 307° |
| 2026-05-05 18:14 | 55.98050 | 38.02472 | 16347 ft | 310 kts | 307° |
| 2026-05-05 18:14 | 55.99358 | 37.99423 | 16054 ft | 307 kts | 307° |
| 2026-05-05 18:14 | 56.00501 | 37.96257 | 15760 ft | 301 kts | 290° |
| 2026-05-05 18:15 | 56.00965 | 37.92647 | 15622 ft | 302 kts | 279° |
| 2026-05-05 18:15 | 56.01326 | 37.88883 | 15429 ft | 311 kts | 280° |
| 2026-05-05 18:15 | 56.01717 | 37.85055 | 15228 ft | 314 kts | 280° |
| 2026-05-05 18:15 | 56.02117 | 37.81294 | 15015 ft | 309 kts | 284° |
| 2026-05-05 18:16 | 56.03010 | 37.77827 | 14782 ft | 304 kts | 309° |
| 2026-05-05 18:16 | 56.04584 | 37.75325 | 14410 ft | 304 kts | 330° |
| 2026-05-05 18:16 | 56.06484 | 37.73695 | 14060 ft | 302 kts | 336° |
| 2026-05-05 18:16 | 56.08373 | 37.72183 | 13697 ft | 302 kts | 335° |
| 2026-05-05 18:17 | 56.10280 | 37.70632 | 13331 ft | 301 kts | 335° |
| 2026-05-05 18:17 | 56.12184 | 37.69062 | 12962 ft | 301 kts | 335° |
| 2026-05-05 18:17 | 56.14056 | 37.67393 | 12573 ft | 301 kts | 330° |
| 2026-05-05 18:17 | 56.15865 | 37.65488 | 12190 ft | 301 kts | 329° |
| 2026-05-05 18:18 | 56.17661 | 37.63528 | 11788 ft | 302 kts | 328° |
| 2026-05-05 18:18 | 56.19458 | 37.61572 | 11390 ft | 303 kts | 329° |
| 2026-05-05 18:18 | 56.21263 | 37.59623 | 10988 ft | 303 kts | 329° |
| 2026-05-05 18:18 | 56.23080 | 37.57677 | 10596 ft | 304 kts | 329° |
| 2026-05-05 18:19 | 56.24863 | 37.55773 | 10217 ft | 291 kts | 329° |
| 2026-05-05 18:19 | 56.26552 | 37.53969 | 9962 ft | 276 kts | 329° |
| 2026-05-05 18:19 | 56.28164 | 37.52248 | 9645 ft | 264 kts | 329° |
| 2026-05-05 18:19 | 56.29678 | 37.50430 | 9319 ft | 262 kts | 314° |
| 2026-05-05 18:20 | 56.30620 | 37.47596 | 9021 ft | 270 kts | 284° |
| 2026-05-05 18:20 | 56.30641 | 37.44241 | 8724 ft | 271 kts | 253° |
| 2026-05-05 18:20 | 56.29807 | 37.41263 | 8442 ft | 264 kts | 235° |
| 2026-05-05 18:20 | 56.28771 | 37.38556 | 8165 ft | 262 kts | 236° |
| 2026-05-05 18:21 | 56.27743 | 37.35845 | 7885 ft | 262 kts | 236° |
| 2026-05-05 18:21 | 56.26713 | 37.33129 | 7601 ft | 262 kts | 234° |
| 2026-05-05 18:21 | 56.25409 | 37.30935 | 7299 ft | 259 kts | 206° |
| 2026-05-05 18:21 | 56.23674 | 37.30196 | 7051 ft | 258 kts | 179° |
| 2026-05-05 18:22 | 56.21937 | 37.30751 | 6786 ft | 258 kts | 163° |
| 2026-05-05 18:22 | 56.20184 | 37.31652 | 6513 ft | 260 kts | 164° |
| 2026-05-05 18:22 | 56.18451 | 37.32527 | 6244 ft | 263 kts | 164° |
| 2026-05-05 18:22 | 56.16686 | 37.33450 | 5934 ft | 262 kts | 159° |
| 2026-05-05 18:23 | 56.15205 | 37.35253 | 5643 ft | 257 kts | 132° |
| 2026-05-05 18:23 | 56.14022 | 37.37643 | 5389 ft | 257 kts | 131° |
| 2026-05-05 18:23 | 56.12819 | 37.40038 | 5125 ft | 260 kts | 132° |
| 2026-05-05 18:23 | 56.11600 | 37.42453 | 4845 ft | 262 kts | 132° |
| 2026-05-05 18:24 | 56.10382 | 37.44864 | 4556 ft | 260 kts | 132° |
| 2026-05-05 18:24 | 56.09197 | 37.47207 | 4245 ft | 247 kts | 132° |
| 2026-05-05 18:24 | 56.08073 | 37.49427 | 4020 ft | 232 kts | 132° |
| 2026-05-05 18:24 | 56.07028 | 37.51488 | 3815 ft | 215 kts | 132° |
| 2026-05-05 18:25 | 56.06045 | 37.53424 | 3565 ft | 205 kts | 132° |
| 2026-05-05 18:25 | 56.05723 | 37.54056 | 3483 ft | 201 kts | 132° |
| 2026-05-05 18:25 | 56.04212 | 37.57022 | 3143 ft | 189 kts | 132° |
| 2026-05-05 18:25 | 56.03325 | 37.58761 | 2934 ft | 189 kts | 132° |
| 2026-05-05 18:26 | 56.02395 | 37.60408 | 2728 ft | 188 kts | 147° |
| 2026-05-05 18:26 | 56.01151 | 37.60931 | 2512 ft | 187 kts | 189° |
| 2026-05-05 18:26 | 56.00046 | 37.59819 | 2394 ft | 184 kts | 231° |
| 2026-05-05 18:26 | 55.99562 | 37.57785 | 2164 ft | 174 kts | 256° |
| 2026-05-05 18:27 | 55.99271 | 37.55781 | 1926 ft | 161 kts | 255° |
| 2026-05-05 18:27 | 55.98990 | 37.53925 | 1719 ft | 151 kts | 255° |
| 2026-05-05 18:27 | 55.98722 | 37.52117 | 1528 ft | 150 kts | 255° |
| 2026-05-05 18:27 | 55.98453 | 37.50309 | 1345 ft | 151 kts | 255° |
| 2026-05-05 18:28 | 55.98005 | 37.47302 | 1006 ft | 150 kts | 255° |
| 2026-05-05 18:28 | 55.97737 | 37.45504 | 807 ft | 149 kts | 255° |
| 2026-05-05 18:28 | 55.97471 | 37.43714 | 650 ft | 147 kts | 255° |
| 2026-05-05 18:29 | 55.97247 | 37.42197 | 645 ft | 96 kts | 255° |
| 2026-05-05 18:29 | 55.97141 | 37.41484 | 644 ft | 23 kts | 255° |
| 2026-05-05 18:29 | 55.97223 | 37.41319 | 644 ft | 0 kts | 344° |
| 2026-05-05 18:30 | 55.97227 | 37.41317 | 644 ft | 2 kts | 344° |
| 2026-05-05 18:30 | 55.97240 | 37.41311 | 644 ft | 2 kts | 343° |
| 2026-05-05 18:30 | 55.97257 | 37.41302 | 644 ft | 7 kts | 345° |
| 2026-05-05 18:31 | 55.97392 | 37.41239 | 645 ft | 24 kts | 345° |
| 2026-05-05 18:31 | 55.97521 | 37.41204 | 649 ft | 15 kts | 25° |
| 2026-05-05 18:31 | 55.97564 | 37.41378 | 644 ft | 16 kts | 75° |
| 2026-05-05 18:31 | 55.97592 | 37.41569 | 644 ft | 16 kts | 75° |
| 2026-05-05 18:32 | 55.97621 | 37.41762 | 644 ft | 16 kts | 75° |
| 2026-05-05 18:32 | 55.97649 | 37.41954 | 647 ft | 16 kts | 75° |
| 2026-05-05 18:32 | 55.97695 | 37.42108 | 644 ft | 14 kts | 20° |
| 2026-05-05 18:32 | 55.97794 | 37.42087 | 648 ft | 14 kts | 346° |
| 2026-05-05 18:33 | 55.97891 | 37.42042 | 644 ft | 14 kts | 345° |
| 2026-05-05 18:33 | 55.97984 | 37.41998 | 644 ft | 11 kts | 346° |
| 2026-05-05 18:33 | 55.98027 | 37.41902 | 644 ft | 10 kts | 268° |
| 2026-05-05 18:33 | 55.98023 | 37.41874 | 644 ft | 1 kts | 256° |
| 2026-05-05 18:34 | 55.98018 | 37.41836 | 644 ft | 0 kts | 254° |